createdAt,value
2017-09-29T07:01:56.308Z,18.47
2017-09-29T07:22:44.933Z,18.38
2017-09-29T07:40:10.276Z,18.43
2017-09-29T07:51:34.023Z,18.59
2017-09-29T07:55:14.616Z,18.62
2017-09-29T07:58:00.130Z,18.58
2017-09-29T08:00:54.702Z,18.48
2017-09-29T08:05:08.652Z,18.31
2017-09-29T08:07:54.146Z,18.27
2017-09-29T08:10:48.858Z,18.22
2017-09-29T08:16:10.685Z,18.14
2017-09-29T08:18:55.471Z,18.21
2017-09-29T08:32:17.426Z,18.69
2017-09-29T08:39:45.332Z,18.89
2017-09-29T08:48:47.190Z,19.06
2017-09-29T08:51:31.674Z,19.16
2017-09-29T08:54:26.251Z,19.18
2017-09-29T08:57:21.131Z,19.17
2017-09-29T09:00:16.232Z,19.17
2017-09-29T09:03:11.483Z,19.21
2017-09-29T09:06:06.851Z,19.33
2017-09-29T09:09:02.363Z,19.52
2017-09-29T09:11:57.953Z,19.73
2017-09-29T09:14:53.610Z,19.96
2017-09-29T09:17:49.230Z,20.18
2017-09-29T09:20:44.830Z,20.39
2017-09-29T09:23:40.461Z,20.61
2017-09-29T09:26:36.185Z,20.84
2017-09-29T09:29:31.873Z,21.06
2017-09-29T09:32:27.615Z,21.27
2017-09-29T09:35:23.234Z,21.45
2017-09-29T09:38:18.841Z,21.63
2017-09-29T09:41:14.314Z,21.75
2017-09-29T09:44:09.631Z,21.80
2017-09-29T09:47:05.013Z,21.82
2017-09-29T09:50:00.462Z,21.84
2017-09-29T09:52:55.843Z,21.87
2017-09-29T09:55:51.132Z,21.88
2017-09-29T09:58:46.620Z,21.90
2017-09-29T10:01:41.956Z,21.94
2017-09-29T10:04:37.442Z,21.99
2017-09-29T10:07:32.817Z,22.06
2017-09-29T10:10:28.326Z,22.13
2017-09-29T10:16:19.403Z,22.24
2017-09-29T10:19:14.857Z,22.23
2017-09-29T10:22:10.271Z,22.24
2017-09-29T10:25:05.667Z,22.24
2017-09-29T10:28:01.083Z,22.25
2017-09-29T10:30:56.533Z,22.24
2017-09-29T10:33:52.065Z,22.22
2017-09-29T10:36:47.467Z,22.16
2017-09-29T10:39:42.824Z,22.08
2017-09-29T10:42:38.161Z,22.00
2017-09-29T10:45:33.486Z,21.93
2017-09-29T10:48:28.803Z,21.87
2017-09-29T10:51:24.191Z,21.82
2017-09-29T10:54:19.526Z,21.74
2017-09-29T10:57:14.822Z,21.67
2017-09-29T11:00:10.189Z,21.58
2017-09-29T11:03:05.565Z,21.49
2017-09-29T11:06:00.924Z,21.41
2017-09-29T11:08:56.307Z,21.34
2017-09-29T11:11:51.681Z,21.30
2017-09-29T11:14:46.962Z,21.26
2017-09-29T11:17:42.353Z,21.21
2017-09-29T11:20:37.655Z,21.16
2017-09-29T11:23:33.004Z,21.09
2017-09-29T11:26:28.343Z,21.05
2017-09-29T11:29:23.742Z,21.00
2017-09-29T11:32:18.956Z,20.96
2017-09-29T11:35:14.276Z,20.92
2017-09-29T11:38:09.526Z,20.89
2017-09-29T11:41:04.822Z,20.85
2017-09-29T11:44:00.100Z,20.82
2017-09-29T11:46:55.409Z,20.80
2017-09-29T11:49:50.641Z,20.77
2017-09-29T11:52:46.065Z,20.74
2017-09-29T11:55:41.272Z,20.72
2017-09-29T11:58:36.518Z,20.71
2017-09-29T12:01:31.862Z,20.67
2017-09-29T12:04:27.219Z,20.65
2017-09-29T12:07:22.500Z,20.64
2017-09-29T12:10:17.856Z,20.62
2017-09-29T12:13:13.164Z,20.61
2017-09-29T12:16:08.497Z,20.59
2017-09-29T12:19:03.716Z,20.58
2017-09-29T12:21:59.058Z,20.58
2017-09-29T12:24:54.326Z,20.58
2017-09-29T12:27:49.565Z,20.57
2017-09-29T12:30:44.881Z,20.57
2017-09-29T12:33:40.100Z,20.56
2017-09-29T12:36:35.438Z,20.56
2017-09-29T12:39:30.686Z,20.56
2017-09-29T12:42:25.993Z,20.56
2017-09-29T12:45:21.463Z,20.56
2017-09-29T12:48:16.618Z,20.55
2017-09-29T12:51:11.915Z,20.55
2017-09-29T12:54:07.212Z,20.55
2017-09-29T12:57:02.443Z,20.56
2017-09-29T12:59:57.698Z,20.56
2017-09-29T13:02:53.065Z,20.56
2017-09-29T13:05:48.226Z,20.56
2017-09-29T13:08:43.502Z,20.55
2017-09-29T13:11:38.793Z,20.55
2017-09-29T13:14:33.990Z,20.56
2017-09-29T13:17:29.306Z,20.57
2017-09-29T13:20:24.611Z,20.58
2017-09-29T13:23:19.829Z,20.57
2017-09-29T13:26:15.108Z,20.58
2017-09-29T13:29:10.672Z,20.60
2017-09-29T13:32:06.259Z,20.62
2017-09-29T13:35:01.595Z,20.62
2017-09-29T13:37:56.810Z,20.62
2017-09-29T13:40:52.057Z,20.61
2017-09-29T13:43:47.412Z,20.59
2017-09-29T13:46:42.554Z,20.60
2017-09-29T13:49:38.081Z,20.60
2017-09-29T13:52:33.422Z,20.60
2017-09-29T13:55:28.746Z,20.59
2017-09-29T13:58:24.014Z,20.60
2017-09-29T14:01:19.267Z,20.60
2017-09-29T14:04:14.499Z,20.61
2017-09-29T14:07:09.842Z,20.64
2017-09-29T14:10:05.178Z,20.64
2017-09-29T14:13:00.437Z,20.64
2017-09-29T14:15:55.680Z,20.65
2017-09-29T14:18:51.081Z,20.65
2017-09-29T14:21:46.356Z,20.64
2017-09-29T14:24:41.605Z,20.65
2017-09-29T14:27:36.875Z,20.66
2017-09-29T14:30:32.154Z,20.67
2017-09-29T14:33:27.353Z,20.67
2017-09-29T14:36:22.599Z,20.67
2017-09-29T14:39:17.932Z,20.68
2017-09-29T14:42:13.189Z,20.67
2017-09-29T14:45:08.902Z,20.68
2017-09-29T14:48:04.108Z,20.68
2017-09-29T14:50:59.372Z,20.68
2017-09-29T14:53:54.828Z,20.67
2017-09-29T14:56:50.096Z,20.66
2017-09-29T14:59:45.371Z,20.65
2017-09-29T15:02:40.717Z,20.63
2017-09-29T15:05:35.964Z,20.63
2017-09-29T15:08:31.158Z,20.62
2017-09-29T15:11:26.407Z,20.60
2017-09-29T15:14:21.727Z,20.59
2017-09-29T15:17:17.005Z,20.57
2017-09-29T15:20:12.297Z,20.56
2017-09-29T15:23:07.552Z,20.53
2017-09-29T15:26:03.147Z,20.51
2017-09-29T15:28:58.445Z,20.49
2017-09-29T15:34:48.938Z,20.45
2017-09-29T15:37:44.246Z,20.43
2017-09-29T15:40:39.420Z,20.41
2017-09-29T15:43:34.779Z,20.39
2017-09-29T15:46:29.979Z,20.37
2017-09-29T15:49:25.242Z,20.35
2017-09-29T15:52:20.450Z,20.32
2017-09-29T15:55:15.640Z,20.29
2017-09-29T15:58:10.854Z,20.25
2017-09-29T16:01:06.180Z,20.22
2017-09-29T16:04:01.319Z,20.20
2017-09-29T16:06:56.593Z,20.17
2017-09-29T16:09:52.172Z,20.14
2017-09-29T16:12:47.549Z,20.11
2017-09-29T16:18:38.032Z,20.06
2017-09-29T16:21:33.264Z,20.04
2017-09-29T16:24:28.570Z,20.02
2017-09-29T16:27:23.757Z,20.00
2017-09-29T16:30:18.896Z,19.97
2017-09-29T16:33:14.106Z,19.94
2017-09-29T16:36:09.232Z,19.90
2017-09-29T16:39:04.572Z,19.87
2017-09-29T16:41:59.804Z,19.83
2017-09-29T16:44:55.063Z,19.80
2017-09-29T16:47:50.302Z,19.76
2017-09-29T16:50:45.456Z,19.74
2017-09-29T16:53:40.654Z,19.72
2017-09-29T16:56:35.919Z,19.69
2017-09-29T16:59:31.242Z,19.67
2017-09-29T17:02:26.451Z,19.64
2017-09-29T17:05:21.621Z,19.60
2017-09-29T17:08:16.802Z,19.56
2017-09-29T17:11:11.972Z,19.52
2017-09-29T17:14:07.151Z,19.49
2017-09-29T17:17:02.444Z,19.45
2017-09-29T17:19:57.542Z,19.42
2017-09-29T17:22:52.792Z,19.39
2017-09-29T17:25:47.833Z,19.35
2017-09-29T17:28:42.958Z,19.31
2017-09-29T17:31:38.059Z,19.28
2017-09-29T17:34:33.220Z,19.24
2017-09-29T17:37:28.415Z,19.21
2017-09-29T17:40:23.690Z,19.16
2017-09-29T17:43:18.867Z,19.12
2017-09-29T17:46:14.024Z,19.10
2017-09-29T17:49:09.257Z,19.06
2017-09-29T17:52:04.360Z,19.03
2017-09-29T17:54:59.578Z,19.01
2017-09-29T17:57:54.788Z,18.98
2017-09-29T18:00:49.978Z,18.96
2017-09-29T18:04:53.096Z,18.93
2017-09-29T18:07:38.898Z,18.96
2017-09-29T18:10:33.754Z,18.96
2017-09-29T18:13:28.872Z,18.93
2017-09-29T18:16:24.052Z,18.89
2017-09-29T18:19:19.151Z,18.82
2017-09-29T18:22:14.281Z,18.75
2017-09-29T18:25:32.158Z,18.68
2017-09-29T18:28:20.498Z,18.63
2017-09-29T18:31:15.458Z,18.57
2017-09-29T18:34:10.545Z,18.50
2017-09-29T18:37:05.736Z,18.44
2017-09-29T18:40:00.869Z,18.38
2017-09-29T18:42:55.983Z,18.33
2017-09-29T18:45:51.177Z,18.28
2017-09-29T18:48:46.290Z,18.22
2017-09-29T18:51:41.405Z,18.15
2017-09-29T18:54:36.551Z,18.08
2017-09-29T18:57:31.761Z,18.02
2017-09-29T19:00:26.794Z,17.95
2017-09-29T19:03:21.989Z,17.90
2017-09-29T19:06:17.073Z,17.86
2017-09-29T19:09:12.171Z,17.82
2017-09-29T19:12:07.278Z,17.79
2017-09-29T19:15:02.428Z,17.75
2017-09-29T19:17:57.536Z,17.69
2017-09-29T19:23:47.656Z,17.63
2017-09-29T19:26:42.784Z,17.59
2017-09-29T19:29:37.964Z,17.56
2017-09-29T19:32:33.046Z,17.53
2017-09-29T19:35:28.214Z,17.49
2017-09-29T19:38:23.251Z,17.45
2017-09-29T19:41:18.322Z,17.38
2017-09-29T19:44:13.571Z,17.33
2017-09-29T19:47:08.705Z,17.26
2017-09-29T19:50:03.752Z,17.21
2017-09-29T19:52:58.798Z,17.17
2017-09-29T19:55:53.975Z,17.14
2017-09-29T19:58:49.101Z,17.09
2017-09-29T20:01:44.227Z,17.04
2017-09-29T20:04:39.377Z,17.00
2017-09-29T20:07:34.495Z,16.96
2017-09-29T20:10:29.565Z,16.90
2017-09-29T20:13:24.766Z,16.86
2017-09-29T20:16:19.720Z,16.84
2017-09-29T20:19:14.805Z,16.83
2017-09-29T20:22:09.886Z,16.80
2017-09-29T20:25:04.965Z,16.78
2017-09-29T20:28:00.072Z,16.77
2017-09-29T20:30:55.212Z,16.75
2017-09-29T20:33:50.229Z,16.73
2017-09-29T20:36:45.374Z,16.72
2017-09-29T20:39:40.432Z,16.69
2017-09-29T20:42:35.561Z,16.68
2017-09-29T20:45:30.690Z,16.66
2017-09-29T20:48:25.765Z,16.64
2017-09-29T20:51:20.831Z,16.61
2017-09-29T20:54:15.928Z,16.58
2017-09-29T20:57:10.929Z,16.55
2017-09-29T21:00:06.029Z,16.52
2017-09-29T21:03:01.046Z,16.51
2017-09-29T21:05:56.074Z,16.47
2017-09-29T21:08:51.091Z,16.43
2017-09-29T21:11:46.428Z,16.39
2017-09-29T21:14:41.569Z,16.36
2017-09-29T21:17:36.775Z,16.34
2017-09-29T21:20:31.900Z,16.31
2017-09-29T21:23:26.892Z,16.27
2017-09-29T21:26:21.956Z,16.24
2017-09-29T21:29:16.936Z,16.20
2017-09-29T21:32:11.836Z,16.17
2017-09-29T21:35:06.886Z,16.14
2017-09-29T21:38:01.974Z,16.11
2017-09-29T21:40:56.956Z,16.09
2017-09-29T21:46:46.929Z,16.04
2017-09-29T21:49:41.946Z,16.01
2017-09-29T21:52:37.013Z,15.99
2017-09-29T21:55:32.065Z,15.98
2017-09-29T21:58:27.383Z,15.97
2017-09-29T22:01:22.964Z,15.94
2017-09-29T22:04:18.036Z,15.93
2017-09-29T22:07:13.098Z,15.90
2017-09-29T22:10:08.165Z,15.88
2017-09-29T22:13:03.209Z,15.86
2017-09-29T22:15:58.168Z,15.83
2017-09-29T22:18:53.068Z,15.82
2017-09-29T22:21:48.078Z,15.80
2017-09-29T22:27:38.159Z,15.76
2017-09-29T22:30:33.154Z,15.73
2017-09-29T22:33:28.405Z,15.69
2017-09-29T22:36:23.416Z,15.66
2017-09-29T22:39:18.490Z,15.64
2017-09-29T22:42:13.522Z,15.63
2017-09-29T22:45:08.410Z,15.60
2017-09-29T22:48:03.405Z,15.59
2017-09-29T22:50:58.383Z,15.57
2017-09-29T22:53:53.291Z,15.55
2017-09-29T22:56:48.378Z,15.53
2017-09-29T22:59:43.362Z,15.52
2017-09-29T23:02:38.412Z,15.51
2017-09-29T23:05:33.402Z,15.50
2017-09-29T23:08:28.408Z,15.50
2017-09-29T23:11:23.480Z,15.49
2017-09-29T23:14:18.552Z,15.48
2017-09-29T23:17:13.521Z,15.46
2017-09-29T23:20:08.514Z,15.43
2017-09-29T23:23:03.504Z,15.41
2017-09-29T23:25:58.453Z,15.38
2017-09-29T23:28:53.455Z,15.36
2017-09-29T23:31:48.311Z,15.36
2017-09-29T23:34:43.296Z,15.34
2017-09-29T23:37:38.267Z,15.33
2017-09-29T23:43:28.348Z,15.30
2017-09-29T23:46:23.331Z,15.28
2017-09-29T23:49:18.271Z,15.28
2017-09-29T23:52:13.194Z,15.27
2017-09-29T23:55:08.214Z,15.25
2017-09-29T23:58:03.242Z,15.22
